TimePDT,TemperatureF,Dew PointF,Humidity,Sea Level PressureIn,VisibilityMPH,Wind Direction,Wind SpeedMPH,Gust SpeedMPH,PrecipitationIn,Events,Conditions,WindDirDegrees,DateUTC
12:53 AM,51.1,44.1,77,29.93,10.0,SSW,5.8,-,N/A,,Partly Cloudy,200,2013-06-03 07:53:00
1:53 AM,50.0,44.1,80,29.93,10.0,Calm,Calm,-,N/A,,Partly Cloudy,0,2013-06-03 08:53:00
2:53 AM,48.9,44.1,83,29.94,10.0,Calm,Calm,-,N/A,,Partly Cloudy,0,2013-06-03 09:53:00
3:53 AM,46.9,44.1,90,29.95,10.0,South,3.5,-,N/A,,Partly Cloudy,170,2013-06-03 10:53:00
4:53 AM,46.0,44.1,93,29.95,10.0,South,4.6,-,N/A,,Partly Cloudy,170,2013-06-03 11:53:00
5:53 AM,46.0,44.1,93,29.98,10.0,South,4.6,-,N/A,,Partly Cloudy,170,2013-06-03 12:53:00
6:53 AM,48.0,44.1,86,29.98,10.0,SE,4.6,-,N/A,,Scattered Clouds,140,2013-06-03 13:53:00
7:53 AM,51.1,44.1,77,29.99,10.0,SSE,5.8,-,N/A,Fog,Partly Cloudy,150,2013-06-03 14:53:00
8:53 AM,55.0,45.0,69,30.00,10.0,South,5.8,-,N/A,Fog,Partly Cloudy,180,2013-06-03 15:53:00
9:53 AM,59.0,46.0,62,30.00,10.0,South,3.5,-,N/A,,Partly Cloudy,170,2013-06-03 16:53:00
10:53 AM,63.0,44.1,50,30.00,10.0,SW,10.4,-,N/A,,Partly Cloudy,220,2013-06-03 17:53:00
11:53 AM,64.9,42.1,43,30.00,10.0,SW,9.2,19.6,N/A,,Scattered Clouds,230,2013-06-03 18:53:00
12:53 PM,66.0,43.0,43,29.99,10.0,Variable,4.6,16.1,N/A,,Mostly Cloudy,0,2013-06-03 19:53:00
1:53 PM,69.1,41.0,36,29.97,10.0,SW,12.7,21.9,N/A,,Mostly Cloudy,230,2013-06-03 20:53:00
2:53 PM,70.0,39.0,32,29.96,10.0,WSW,10.4,-,N/A,,Mostly Cloudy,250,2013-06-03 21:53:00
3:53 PM,71.1,37.0,29,29.96,10.0,WSW,12.7,20.7,N/A,,Mostly Cloudy,250,2013-06-03 22:53:00
4:53 PM,72.0,35.1,26,29.96,10.0,WSW,17.3,23.0,N/A,,Mostly Cloudy,240,2013-06-03 23:53:00
5:14 PM,71.6,35.6,27,29.98,10.0,West,17.3,-,N/A,,Mostly Cloudy,280,2013-06-04 00:14:00
5:53 PM,68.0,37.9,33,29.98,10.0,NNW,10.4,-,N/A,,Mostly Cloudy,330,2013-06-04 00:53:00
6:53 PM,66.9,39.9,37,29.99,10.0,NE,9.2,-,N/A,,Mostly Cloudy,50,2013-06-04 01:53:00
7:53 PM,64.0,43.0,46,30.01,10.0,ENE,6.9,-,N/A,,Scattered Clouds,70,2013-06-04 02:53:00
8:53 PM,62.1,44.1,52,30.02,10.0,East,6.9,-,N/A,,Scattered Clouds,80,2013-06-04 03:53:00
9:53 PM,57.0,45.0,64,30.04,10.0,ENE,6.9,-,N/A,,Partly Cloudy,60,2013-06-04 04:53:00
10:53 PM,55.9,46.0,69,30.04,10.0,ENE,6.9,-,N/A,,Clear,60,2013-06-04 05:53:00
11:53 PM,55.0,46.0,72,30.05,10.0,NE,6.9,-,N/A,,Clear,50,2013-06-04 06:53:00